createdAt,value
2023-08-17T00:02:24.497Z,5.75
2023-08-17T00:04:52.062Z,6.07
2023-08-17T00:07:19.333Z,6.53
2023-08-17T00:09:46.326Z,6.38
2023-08-17T00:12:13.605Z,6.30
2023-08-17T00:14:40.574Z,5.38
2023-08-17T00:17:07.836Z,4.80
2023-08-17T00:19:34.748Z,5.95
2023-08-17T00:22:02.020Z,5.15
2023-08-17T00:24:29.397Z,5.73
2023-08-17T00:26:56.851Z,5.65
2023-08-17T00:29:24.346Z,4.80
2023-08-17T00:31:52.876Z,4.75
2023-08-17T00:34:20.655Z,5.10
2023-08-17T00:36:48.021Z,4.87
2023-08-17T00:39:15.858Z,5.72
2023-08-17T00:41:43.124Z,5.88
2023-08-17T00:44:10.073Z,5.80
2023-08-17T00:46:37.873Z,5.53
2023-08-17T00:49:05.136Z,5.70
2023-08-17T00:51:32.889Z,5.70
2023-08-17T00:54:02.555Z,5.70
2023-08-17T00:56:30.900Z,5.70
2023-08-17T00:58:58.174Z,5.20
2023-08-17T01:01:25.640Z,5.50
2023-08-17T01:03:52.983Z,5.20
2023-08-17T01:06:20.668Z,5.10
2023-08-17T01:08:48.029Z,5.03
2023-08-17T01:11:37.530Z,5.10
2023-08-17T01:14:21.718Z,5.13
2023-08-17T01:16:57.284Z,5.38
2023-08-17T01:19:28.582Z,5.18
2023-08-17T01:22:05.177Z,4.55
2023-08-17T01:24:32.187Z,4.90
2023-08-17T01:26:59.661Z,5.23
2023-08-17T01:29:27.356Z,5.88
2023-08-17T01:32:07.380Z,4.72
2023-08-17T01:34:41.598Z,4.75
2023-08-17T01:37:11.555Z,5.45
2023-08-17T01:39:40.834Z,5.57
2023-08-17T01:42:08.607Z,5.15
2023-08-17T01:44:35.688Z,4.78
2023-08-17T01:47:04.809Z,4.43
2023-08-17T01:49:31.799Z,4.15
2023-08-17T01:52:00.256Z,4.93
2023-08-17T01:54:27.552Z,5.28
2023-08-17T01:56:54.823Z,4.55
2023-08-17T01:59:22.172Z,4.63
2023-08-17T02:01:49.460Z,4.40
2023-08-17T02:04:16.464Z,5.10
2023-08-17T02:06:43.720Z,4.60
2023-08-17T02:09:10.711Z,4.32
2023-08-17T02:11:38.296Z,4.00
2023-08-17T02:14:05.396Z,4.10
2023-08-17T02:16:32.758Z,4.23
2023-08-17T02:18:59.810Z,4.00
2023-08-17T02:21:27.147Z,3.70
2023-08-17T02:23:54.083Z,4.97
2023-08-17T02:26:23.895Z,4.50
2023-08-17T02:28:50.818Z,4.87
2023-08-17T02:31:18.158Z,4.75
2023-08-17T02:33:45.248Z,5.00
2023-08-17T02:36:12.565Z,4.30
2023-08-17T02:38:39.557Z,4.47
2023-08-17T02:41:07.132Z,3.90
2023-08-17T02:43:34.098Z,3.92
2023-08-17T02:46:01.355Z,4.22
2023-08-17T02:48:29.926Z,3.67
2023-08-17T02:50:58.406Z,4.07
2023-08-17T02:53:25.327Z,3.83
2023-08-17T02:55:52.607Z,3.90
2023-08-17T02:58:20.273Z,3.40
2023-08-17T03:00:47.859Z,3.75
2023-08-17T03:03:14.914Z,3.38
2023-08-17T03:05:42.254Z,3.40
2023-08-17T03:08:09.404Z,3.92
2023-08-17T03:10:38.678Z,3.67
2023-08-17T03:13:05.629Z,3.78
2023-08-17T03:15:33.005Z,3.85
2023-08-17T03:18:00.108Z,3.97
2023-08-17T03:20:28.074Z,3.95
2023-08-17T03:22:55.044Z,4.57
2023-08-17T03:25:24.307Z,6.32
2023-08-17T03:27:51.291Z,6.63
2023-08-17T03:30:18.773Z,6.30
2023-08-17T03:32:45.823Z,5.80
2023-08-17T03:35:14.425Z,6.70
2023-08-17T03:37:42.074Z,7.20
2023-08-17T03:40:10.403Z,7.80
2023-08-17T03:42:37.608Z,7.67
2023-08-17T03:45:05.507Z,7.28
2023-08-17T03:47:33.389Z,6.75
2023-08-17T03:50:02.145Z,5.82
2023-08-17T03:52:30.636Z,5.10
2023-08-17T03:54:57.909Z,6.20
2023-08-17T03:57:25.122Z,6.65
2023-08-17T03:59:52.619Z,7.38
2023-08-17T04:02:19.572Z,7.35
2023-08-17T04:04:46.862Z,5.30
2023-08-17T04:07:22.198Z,5.30
2023-08-17T04:09:49.469Z,5.32
2023-08-17T04:12:17.215Z,6.38
2023-08-17T04:14:44.501Z,6.05
2023-08-17T04:17:11.661Z,6.20
2023-08-17T04:19:38.963Z,5.53
2023-08-17T04:22:06.076Z,5.78
2023-08-17T04:24:33.376Z,5.90
2023-08-17T04:27:00.921Z,6.20
2023-08-17T04:29:28.242Z,6.32
2023-08-17T04:31:55.262Z,6.77
2023-08-17T04:34:22.588Z,5.97
2023-08-17T04:36:49.526Z,5.00
2023-08-17T04:39:18.047Z,4.82
2023-08-17T04:41:45.060Z,4.35
2023-08-17T04:44:16.324Z,4.93
2023-08-17T04:46:43.703Z,5.30
2023-08-17T04:49:11.012Z,5.53
2023-08-17T04:51:38.439Z,4.47
2023-08-17T04:54:05.770Z,4.32
2023-08-17T04:56:32.772Z,4.10
2023-08-17T04:59:00.060Z,4.60
2023-08-17T05:01:27.173Z,4.80
2023-08-17T05:03:56.072Z,5.13
2023-08-17T05:06:24.286Z,4.32
2023-08-17T05:08:51.888Z,5.20
2023-08-17T05:11:19.200Z,4.88
2023-08-17T05:13:47.650Z,5.30
2023-08-17T05:16:14.618Z,4.47
2023-08-17T05:18:42.285Z,4.35
2023-08-17T05:21:11.258Z,4.27
2023-08-17T05:23:38.507Z,4.80
2023-08-17T05:26:05.767Z,4.05
2023-08-17T05:28:33.106Z,4.60
2023-08-17T05:31:07.771Z,3.80
2023-08-17T05:33:38.700Z,4.07
2023-08-17T05:36:05.735Z,4.85
2023-08-17T05:38:33.099Z,4.80
2023-08-17T05:41:00.666Z,4.63
2023-08-17T05:43:27.913Z,4.40
2023-08-17T05:45:54.873Z,4.40
2023-08-17T05:48:23.059Z,4.00
2023-08-17T05:50:50.109Z,4.40
2023-08-17T05:53:17.382Z,4.30
2023-08-17T05:55:44.344Z,4.20
2023-08-17T05:58:11.744Z,3.40
2023-08-17T06:00:39.522Z,4.00
2023-08-17T06:03:06.961Z,4.00
2023-08-17T06:05:34.188Z,4.38
2023-08-17T06:08:01.813Z,4.25
2023-08-17T06:10:28.739Z,4.17
2023-08-17T06:12:56.993Z,4.10
2023-08-17T06:15:24.449Z,3.80
2023-08-17T06:17:52.509Z,3.67
2023-08-17T06:20:19.911Z,3.90
2023-08-17T06:22:49.225Z,4.10
2023-08-17T06:25:16.307Z,4.40
2023-08-17T06:27:46.998Z,3.45
2023-08-17T06:30:14.412Z,3.97
2023-08-17T06:32:41.765Z,3.75
2023-08-17T06:35:09.065Z,3.80
2023-08-17T06:37:36.786Z,3.78
2023-08-17T06:40:06.617Z,3.70
2023-08-17T06:42:33.926Z,3.58
2023-08-17T06:45:00.929Z,3.67
2023-08-17T06:47:28.547Z,4.00
2023-08-17T06:49:56.512Z,4.15
2023-08-17T06:52:23.751Z,3.90
2023-08-17T06:54:50.693Z,4.20
2023-08-17T06:57:17.938Z,4.20
2023-08-17T06:59:47.233Z,4.33
2023-08-17T07:02:14.480Z,3.78
2023-08-17T07:04:41.703Z,3.72
2023-08-17T07:07:08.944Z,3.47
2023-08-17T07:09:36.314Z,3.70
2023-08-17T07:12:03.815Z,3.47
2023-08-17T07:14:31.097Z,3.50
2023-08-17T07:16:58.366Z,3.50
2023-08-17T07:19:35.771Z,3.63
2023-08-17T07:22:12.779Z,3.60
2023-08-17T07:24:39.730Z,3.37
2023-08-17T07:27:07.059Z,3.80
2023-08-17T07:29:34.025Z,3.05
2023-08-17T07:32:03.329Z,4.00
2023-08-17T07:34:32.375Z,3.38
2023-08-17T07:36:59.946Z,3.37
2023-08-17T07:39:27.032Z,3.78
2023-08-17T07:41:55.136Z,3.50
2023-08-17T07:44:22.168Z,3.50
2023-08-17T07:46:49.557Z,3.60
2023-08-17T07:49:30.319Z,3.37
2023-08-17T07:51:59.954Z,3.13
2023-08-17T07:54:26.950Z,2.90
2023-08-17T07:56:54.269Z,3.40
2023-08-17T07:59:21.221Z,3.08
2023-08-17T08:01:48.531Z,3.30
2023-08-17T08:04:15.540Z,3.03
2023-08-17T08:06:43.545Z,3.30
2023-08-17T08:09:10.538Z,3.75
2023-08-17T08:11:37.931Z,3.15
2023-08-17T08:14:05.444Z,3.30
2023-08-17T08:16:32.793Z,3.15
2023-08-17T08:18:59.881Z,3.10
2023-08-17T08:21:29.072Z,3.40
2023-08-17T08:23:56.045Z,3.08
2023-08-17T08:26:23.452Z,4.50
2023-08-17T08:28:50.523Z,4.05
2023-08-17T08:31:17.853Z,3.50
2023-08-17T08:33:45.413Z,3.83
2023-08-17T08:36:12.701Z,3.63
2023-08-17T08:38:39.669Z,3.53
2023-08-17T08:41:09.784Z,3.15
2023-08-17T08:43:37.337Z,3.40
2023-08-17T08:46:05.975Z,3.55
2023-08-17T08:48:33.737Z,3.30
2023-08-17T08:51:02.007Z,2.97
2023-08-17T08:53:40.311Z,3.80
2023-08-17T08:56:12.943Z,3.20
2023-08-17T08:58:41.680Z,3.00
2023-08-17T09:01:12.121Z,3.47
2023-08-17T09:03:40.098Z,3.07
2023-08-17T09:08:50.496Z,3.10
2023-08-17T09:11:17.875Z,3.05
2023-08-17T09:13:44.853Z,3.85
2023-08-17T09:16:12.339Z,3.83
2023-08-17T09:18:39.627Z,3.55
2023-08-17T09:21:07.272Z,3.97
2023-08-17T09:23:37.324Z,3.40
2023-08-17T09:26:12.495Z,3.15
2023-08-17T09:28:41.320Z,3.13
2023-08-17T09:31:08.677Z,3.22
2023-08-17T09:33:36.703Z,3.10
2023-08-17T09:36:04.255Z,2.90
2023-08-17T09:38:31.400Z,3.38
2023-08-17T09:40:59.427Z,3.10
2023-08-17T09:43:29.557Z,4.03
2023-08-17T09:45:57.249Z,3.55
2023-08-17T09:48:26.684Z,3.50
2023-08-17T09:50:57.933Z,2.75
2023-08-17T09:53:25.829Z,3.37
2023-08-17T09:55:54.917Z,3.03
2023-08-17T09:58:22.010Z,3.25
2023-08-17T10:00:52.207Z,3.30
2023-08-17T10:03:21.098Z,3.20
2023-08-17T10:06:00.253Z,3.10
2023-08-17T10:08:31.463Z,2.40
2023-08-17T10:11:00.613Z,2.78
2023-08-17T10:13:38.673Z,2.90
2023-08-17T10:16:30.415Z,3.70
2023-08-17T10:19:10.649Z,3.53
2023-08-17T10:21:43.053Z,3.50
2023-08-17T10:24:10.502Z,3.28
2023-08-17T10:26:38.115Z,3.70
2023-08-17T10:31:39.984Z,3.43
2023-08-17T10:34:07.514Z,3.03
2023-08-17T10:36:35.310Z,3.38
2023-08-17T10:39:28.672Z,3.00
2023-08-17T10:41:58.423Z,3.28
2023-08-17T10:44:44.196Z,2.90
2023-08-17T10:50:08.486Z,3.20
2023-08-17T10:52:38.653Z,3.22
2023-08-17T10:55:08.345Z,3.10
2023-08-17T10:57:40.710Z,2.83
2023-08-17T11:00:38.916Z,2.85
2023-08-17T11:03:21.280Z,2.80
2023-08-17T11:05:55.308Z,2.50
2023-08-17T11:08:52.985Z,2.97
2023-08-17T11:11:21.699Z,2.80
2023-08-17T11:13:49.524Z,2.80
2023-08-17T11:16:19.690Z,3.00
2023-08-17T11:18:52.508Z,2.78
2023-08-17T11:21:20.425Z,3.40
2023-08-17T11:23:48.206Z,3.53
2023-08-17T11:26:19.496Z,3.30
2023-08-17T11:28:47.023Z,3.70
2023-08-17T11:31:17.096Z,3.65
2023-08-17T11:33:44.833Z,3.00
2023-08-17T11:36:12.039Z,3.30
2023-08-17T11:38:41.354Z,3.08
2023-08-17T11:41:18.502Z,4.10
2023-08-17T11:43:47.098Z,3.90
2023-08-17T11:46:14.284Z,3.85
2023-08-17T11:48:42.082Z,3.60
2023-08-17T11:51:09.742Z,3.35
2023-08-17T11:53:40.880Z,3.10
2023-08-17T11:56:10.652Z,3.40
2023-08-17T11:58:47.564Z,3.60
2023-08-17T12:01:17.609Z,10.13
2023-08-17T12:03:46.438Z,5.30
2023-08-17T12:06:16.992Z,3.72
2023-08-17T12:08:47.551Z,3.60
2023-08-17T12:11:16.592Z,3.60
2023-08-17T12:13:44.090Z,3.70
2023-08-17T12:16:16.740Z,3.47
2023-08-17T12:18:49.688Z,4.13
2023-08-17T12:21:16.734Z,3.50
2023-08-17T12:23:44.300Z,3.50
2023-08-17T12:26:11.267Z,3.10
2023-08-17T12:28:41.380Z,2.78
2023-08-17T12:31:08.473Z,2.67
2023-08-17T12:33:35.857Z,2.35
2023-08-17T12:36:03.250Z,2.60
2023-08-17T12:38:30.565Z,2.60
2023-08-17T12:40:57.480Z,2.90
2023-08-17T12:43:24.788Z,2.53
2023-08-17T12:45:52.509Z,2.80
2023-08-17T12:48:19.812Z,2.58
2023-08-17T12:50:46.767Z,3.00
2023-08-17T12:53:14.018Z,2.60
2023-08-17T12:55:41.376Z,2.97
2023-08-17T12:58:12.053Z,2.63
2023-08-17T13:00:39.041Z,3.17
2023-08-17T13:03:06.453Z,3.07
2023-08-17T13:05:34.532Z,3.00
2023-08-17T13:08:02.211Z,2.90
2023-08-17T13:10:30.095Z,3.13
2023-08-17T13:13:00.612Z,2.70
2023-08-17T13:15:28.104Z,3.07
2023-08-17T13:17:55.466Z,2.78
2023-08-17T13:20:23.707Z,2.50
2023-08-17T13:22:50.990Z,2.30
2023-08-17T13:25:18.292Z,2.60
2023-08-17T13:27:45.609Z,2.40
2023-08-17T13:30:12.980Z,2.20
2023-08-17T13:32:40.297Z,2.00
2023-08-17T13:35:07.577Z,2.20
2023-08-17T13:37:35.866Z,2.80
2023-08-17T13:40:02.919Z,2.60
2023-08-17T13:42:30.643Z,2.90
2023-08-17T13:44:58.014Z,3.00
2023-08-17T13:47:25.378Z,2.88
2023-08-17T13:49:52.289Z,3.33
2023-08-17T13:52:19.541Z,2.80
2023-08-17T13:54:46.971Z,2.60
2023-08-17T13:57:14.407Z,2.38
2023-08-17T13:59:41.520Z,2.50
2023-08-17T14:02:09.777Z,2.55
2023-08-17T14:04:37.328Z,2.67
2023-08-17T14:07:04.713Z,2.63
2023-08-17T14:09:31.951Z,2.70
2023-08-17T14:11:59.337Z,2.70
2023-08-17T14:14:26.287Z,3.17
2023-08-17T14:16:53.586Z,2.80
2023-08-17T14:19:20.486Z,2.80
2023-08-17T14:21:47.734Z,2.85
2023-08-17T14:24:14.755Z,2.55
2023-08-17T14:26:42.064Z,3.00
2023-08-17T14:29:09.024Z,2.90
2023-08-17T14:31:36.307Z,2.85
2023-08-17T14:34:06.435Z,2.60
2023-08-17T14:36:34.640Z,2.90
2023-08-17T14:39:01.637Z,3.00
2023-08-17T14:41:33.636Z,3.33
2023-08-17T14:44:03.136Z,2.70
2023-08-17T14:46:31.546Z,3.00
2023-08-17T14:48:59.069Z,3.35
2023-08-17T14:53:56.576Z,3.23
2023-08-17T14:56:24.235Z,3.20
2023-08-17T14:58:51.194Z,2.90
2023-08-17T15:01:19.232Z,3.40
2023-08-17T15:03:47.676Z,3.50
2023-08-17T15:06:28.456Z,3.63
2023-08-17T15:09:00.458Z,3.10
2023-08-17T15:11:27.803Z,2.80
2023-08-17T15:13:54.777Z,3.40
2023-08-17T15:16:26.833Z,3.17
2023-08-17T15:18:54.988Z,3.00
2023-08-17T15:21:23.043Z,3.40
2023-08-17T15:23:49.989Z,3.20
2023-08-17T15:26:17.292Z,3.28
2023-08-17T15:28:44.440Z,3.10
2023-08-17T15:31:14.576Z,3.07
2023-08-17T15:33:42.904Z,3.50
2023-08-17T15:36:10.393Z,3.90
2023-08-17T15:38:38.935Z,3.33
2023-08-17T15:41:06.353Z,3.38
2023-08-17T15:43:33.299Z,3.00
2023-08-17T15:46:00.713Z,3.25
2023-08-17T15:48:27.919Z,3.42
2023-08-17T15:50:55.485Z,3.13
2023-08-17T15:53:22.485Z,3.17
2023-08-17T15:55:49.925Z,3.30
2023-08-17T15:58:17.115Z,3.92
2023-08-17T16:00:44.382Z,3.47
2023-08-17T16:03:13.355Z,3.80
2023-08-17T16:05:41.322Z,3.60
2023-08-17T16:08:08.581Z,3.90
2023-08-17T16:10:37.031Z,3.28
2023-08-17T16:13:04.206Z,3.55
2023-08-17T16:15:31.487Z,3.80
2023-08-17T16:18:01.616Z,3.53
2023-08-17T16:20:31.669Z,2.90
2023-08-17T16:22:58.664Z,3.83
2023-08-17T16:27:56.543Z,4.63
2023-08-17T16:30:24.279Z,3.90
2023-08-17T16:32:51.412Z,4.87
2023-08-17T16:35:18.909Z,4.00
2023-08-17T16:37:45.845Z,4.45
2023-08-17T16:40:27.710Z,3.60
2023-08-17T16:43:01.298Z,3.30
2023-08-17T16:45:28.975Z,3.20
2023-08-17T16:47:56.233Z,3.28
2023-08-17T16:50:23.523Z,3.10
2023-08-17T16:52:51.326Z,3.80
2023-08-17T16:55:18.987Z,3.30
2023-08-17T16:57:46.339Z,3.50
2023-08-17T17:00:14.193Z,3.20
2023-08-17T17:02:41.228Z,3.47
2023-08-17T17:05:09.290Z,3.78
2023-08-17T17:07:36.677Z,3.45
2023-08-17T17:10:04.287Z,3.70
2023-08-17T17:12:31.334Z,3.60
2023-08-17T17:14:58.794Z,3.10
2023-08-17T17:17:26.168Z,3.38
2023-08-17T17:19:53.741Z,3.30
2023-08-17T17:22:21.290Z,3.10
2023-08-17T17:24:48.562Z,2.97
2023-08-17T17:27:15.592Z,2.80
2023-08-17T17:29:42.838Z,3.20
2023-08-17T17:32:10.076Z,3.70
2023-08-17T17:34:37.337Z,3.87
2023-08-17T17:37:04.732Z,3.80
2023-08-17T17:39:32.279Z,3.67
2023-08-17T17:41:59.831Z,3.13
2023-08-17T17:44:27.075Z,3.17
2023-08-17T17:46:54.193Z,3.10
2023-08-17T17:49:21.963Z,3.25
2023-08-17T17:51:49.342Z,3.83
2023-08-17T17:54:19.386Z,4.43
2023-08-17T17:56:47.696Z,4.82
2023-08-17T17:59:15.262Z,5.80
2023-08-17T18:01:42.297Z,6.40
2023-08-17T18:04:10.893Z,6.68
2023-08-17T18:06:38.051Z,4.63
2023-08-17T18:09:08.551Z,5.03
2023-08-17T18:11:36.295Z,4.50
2023-08-17T18:14:03.869Z,3.47
2023-08-17T18:16:31.961Z,4.15
2023-08-17T18:18:59.443Z,3.78
2023-08-17T18:21:26.502Z,3.40
2023-08-17T18:23:53.745Z,3.90
2023-08-17T18:26:20.766Z,4.45
2023-08-17T18:28:48.382Z,4.15
2023-08-17T18:31:15.423Z,4.90
2023-08-17T18:33:42.747Z,4.00
2023-08-17T18:36:09.682Z,3.60
2023-08-17T18:38:36.920Z,3.67
2023-08-17T18:41:11.510Z,3.90
2023-08-17T18:43:39.679Z,3.83
2023-08-17T18:46:07.890Z,3.30
2023-08-17T18:48:35.235Z,3.40
2023-08-17T18:51:02.370Z,2.70
2023-08-17T18:53:29.636Z,2.50
2023-08-17T18:55:56.755Z,2.30
2023-08-17T18:58:26.187Z,2.40
2023-08-17T19:00:53.323Z,2.40
2023-08-17T19:03:20.852Z,2.55
2023-08-17T19:05:47.965Z,2.47
2023-08-17T19:08:15.335Z,2.30
2023-08-17T19:10:42.291Z,2.40
2023-08-17T19:13:09.557Z,2.50
2023-08-17T19:15:36.613Z,2.38
2023-08-17T19:18:04.415Z,2.60
2023-08-17T19:20:31.513Z,2.33
2023-08-17T19:22:58.922Z,2.22
2023-08-17T19:25:26.048Z,2.50
2023-08-17T19:27:53.455Z,2.92
2023-08-17T19:30:20.473Z,2.60
2023-08-17T19:32:47.839Z,2.58
2023-08-17T19:35:16.109Z,3.03
2023-08-17T19:37:44.333Z,2.60
2023-08-17T19:40:11.841Z,2.50
2023-08-17T19:42:39.143Z,2.22
2023-08-17T19:45:06.525Z,2.63
2023-08-17T19:47:33.834Z,2.40
2023-08-17T19:50:00.767Z,3.00
2023-08-17T19:52:28.177Z,2.70
2023-08-17T19:54:55.137Z,2.40
2023-08-17T19:57:22.720Z,2.15
2023-08-17T19:59:49.611Z,2.58
2023-08-17T20:02:16.912Z,2.60
2023-08-17T20:04:43.857Z,2.45
2023-08-17T20:07:11.462Z,2.53
2023-08-17T20:09:38.738Z,2.38
2023-08-17T20:12:07.060Z,2.30
2023-08-17T20:14:35.919Z,2.23
2023-08-17T20:17:03.492Z,2.30
2023-08-17T20:19:33.628Z,2.30
2023-08-17T20:22:01.158Z,2.30
2023-08-17T20:24:31.596Z,2.20
2023-08-17T20:26:58.903Z,2.37
2023-08-17T20:29:25.872Z,2.70
2023-08-17T20:31:53.880Z,3.03
2023-08-17T20:34:21.276Z,2.70
2023-08-17T20:36:48.698Z,3.03
2023-08-17T20:39:16.899Z,2.80
2023-08-17T20:41:44.701Z,2.50
2023-08-17T20:44:14.164Z,2.35
2023-08-17T20:46:41.461Z,2.50
2023-08-17T20:49:09.014Z,3.00
2023-08-17T20:51:36.419Z,2.87
2023-08-17T20:54:03.686Z,3.10
2023-08-17T20:56:31.024Z,2.80
2023-08-17T20:58:57.949Z,2.88
2023-08-17T21:01:25.330Z,2.60
2023-08-17T21:03:52.341Z,2.47
2023-08-17T21:06:19.617Z,2.90
2023-08-17T21:08:46.547Z,3.17
2023-08-17T21:11:14.184Z,2.90
2023-08-17T21:13:41.095Z,2.92
2023-08-17T21:16:09.629Z,2.93
2023-08-17T21:18:36.823Z,2.90
2023-08-17T21:21:04.301Z,2.78
2023-08-17T21:23:32.408Z,2.67
2023-08-17T21:26:02.702Z,2.88
2023-08-17T21:28:29.860Z,2.70
2023-08-17T21:31:04.360Z,2.50
2023-08-17T21:33:31.781Z,2.30
2023-08-17T21:36:00.083Z,2.60
2023-08-17T21:38:27.574Z,2.42
2023-08-17T21:40:59.490Z,2.40
2023-08-17T21:43:26.996Z,2.60
2023-08-17T21:46:01.657Z,2.97
2023-08-17T21:48:28.925Z,2.70
2023-08-17T21:50:57.934Z,2.72
2023-08-17T21:53:24.873Z,2.50
2023-08-17T21:55:53.106Z,2.20
2023-08-17T21:58:20.300Z,2.20
2023-08-17T22:00:48.481Z,2.70
2023-08-17T22:03:17.399Z,3.25
2023-08-17T22:05:46.779Z,2.50
2023-08-17T22:08:14.744Z,2.80
2023-08-17T22:10:42.955Z,2.55
2023-08-17T22:13:09.881Z,2.85
2023-08-17T22:15:37.322Z,2.60
2023-08-17T22:18:04.431Z,2.20
2023-08-17T22:20:31.753Z,1.80
2023-08-17T22:22:59.017Z,1.80
2023-08-17T22:25:26.338Z,1.70
2023-08-17T22:27:53.243Z,1.90
2023-08-17T22:30:20.525Z,1.77
2023-08-17T22:32:47.622Z,1.85
2023-08-17T22:35:15.025Z,1.95
2023-08-17T22:37:41.948Z,1.95
2023-08-17T22:40:09.646Z,1.60
2023-08-17T22:42:36.882Z,1.80
2023-08-17T22:45:04.363Z,1.90
2023-08-17T22:47:32.336Z,1.67
2023-08-17T22:50:00.096Z,1.70
2023-08-17T22:52:27.060Z,1.65
2023-08-17T22:54:55.105Z,1.80
2023-08-17T22:57:22.376Z,1.80
2023-08-17T22:59:49.600Z,1.75
2023-08-17T23:02:16.526Z,1.80
2023-08-17T23:04:43.974Z,2.08
2023-08-17T23:07:10.986Z,2.60
2023-08-17T23:09:38.236Z,2.78
2023-08-17T23:12:06.315Z,2.40
2023-08-17T23:14:35.768Z,2.40
2023-08-17T23:17:03.054Z,2.80
2023-08-17T23:19:30.348Z,3.63
2023-08-17T23:21:57.385Z,2.83
2023-08-17T23:24:24.780Z,3.15
2023-08-17T23:26:51.665Z,3.00
2023-08-17T23:29:18.925Z,2.72
2023-08-17T23:31:46.182Z,3.13
2023-08-17T23:34:13.407Z,2.80
2023-08-17T23:36:40.282Z,2.70
2023-08-17T23:39:07.630Z,2.60
2023-08-17T23:41:34.669Z,2.88
2023-08-17T23:44:02.259Z,2.80
2023-08-17T23:46:29.295Z,3.60
2023-08-17T23:48:56.569Z,3.10
2023-08-17T23:51:23.532Z,2.90
2023-08-17T23:53:50.912Z,3.38
2023-08-17T23:56:17.926Z,3.40
2023-08-17T23:58:45.253Z,3.40
